createdAt,value
2019-02-20T00:00:49.466Z,99.99
2019-02-20T00:01:49.441Z,99.99
2019-02-20T00:02:49.422Z,99.99
2019-02-20T00:03:49.425Z,99.99
2019-02-20T00:04:49.431Z,99.99
2019-02-20T00:05:49.391Z,99.99
2019-02-20T00:06:49.409Z,99.99
2019-02-20T00:07:49.392Z,99.99
2019-02-20T00:08:49.367Z,99.99
2019-02-20T00:09:49.367Z,99.99
2019-02-20T00:10:49.354Z,99.99
2019-02-20T00:11:49.415Z,99.99
2019-02-20T00:12:49.340Z,99.99
2019-02-20T00:13:49.346Z,99.99
2019-02-20T00:14:49.342Z,99.99
2019-02-20T00:15:49.336Z,99.99
2019-02-20T00:16:49.314Z,99.99
2019-02-20T00:17:49.293Z,99.99
2019-02-20T00:18:49.303Z,99.99
2019-02-20T00:19:49.319Z,99.99
2019-02-20T00:20:49.285Z,99.99
2019-02-20T00:21:49.287Z,99.99
2019-02-20T00:22:49.281Z,99.99
2019-02-20T00:23:49.311Z,99.99
2019-02-20T00:24:49.248Z,99.99
2019-02-20T00:25:49.247Z,99.99
2019-02-20T00:26:52.835Z,99.99
2019-02-20T00:27:49.274Z,99.99
2019-02-20T00:28:57.241Z,99.99
2019-02-20T00:30:43.672Z,99.99
2019-02-20T00:31:43.122Z,99.99
2019-02-20T00:33:38.428Z,99.99
2019-02-20T00:34:37.939Z,99.99
2019-02-20T00:35:36.945Z,99.99
2019-02-20T00:36:37.476Z,99.99
2019-02-20T00:37:37.467Z,99.99
2019-02-20T00:38:37.958Z,99.99
2019-02-20T00:39:36.848Z,99.99
2019-02-20T00:40:36.907Z,99.99
2019-02-20T00:41:36.856Z,99.99
2019-02-20T00:42:37.341Z,99.99
2019-02-20T00:43:37.314Z,99.99
2019-02-20T00:44:36.690Z,99.99
2019-02-20T00:45:36.516Z,99.99
2019-02-20T00:46:37.217Z,99.99
2019-02-20T00:47:37.254Z,99.99
2019-02-20T00:48:36.580Z,99.99
2019-02-20T00:49:36.533Z,99.99
2019-02-20T00:50:36.499Z,99.99
2019-02-20T00:51:36.685Z,99.99
2019-02-20T00:52:39.256Z,99.99
2019-02-20T00:53:37.179Z,99.99
2019-02-20T00:54:36.760Z,99.99
2019-02-20T00:55:36.689Z,99.99
2019-02-20T00:57:59.105Z,99.99
2019-02-20T00:59:22.301Z,99.99
2019-02-20T00:59:45.799Z,99.99
2019-02-20T01:02:21.986Z,99.99
2019-02-20T01:03:09.648Z,99.99
2019-02-20T01:10:07.059Z,99.99
2019-02-20T01:10:39.573Z,99.99
2019-02-20T01:13:39.171Z,99.99
2019-02-20T01:14:47.666Z,99.99
2019-02-20T01:30:31.750Z,99.99
2019-02-20T01:33:57.903Z,99.99
2019-02-20T01:34:27.452Z,99.99
2019-02-20T01:36:57.774Z,99.99
2019-02-20T01:37:21.700Z,99.99
2019-02-20T01:38:22.216Z,99.99
2019-02-20T01:39:21.691Z,99.99
2019-02-20T01:40:21.689Z,99.99
2019-02-20T01:41:22.212Z,99.99
2019-02-20T01:42:21.614Z,99.99
2019-02-20T01:46:49.521Z,99.99
2019-02-20T01:47:37.127Z,99.99
2019-02-20T01:49:03.045Z,99.99
2019-02-20T01:49:38.598Z,99.99
2019-02-20T01:50:39.507Z,99.99
2019-02-20T01:51:40.430Z,99.99
2019-02-20T01:52:39.445Z,99.99
2019-02-20T01:53:38.621Z,99.99
2019-02-20T01:54:40.420Z,99.99
2019-02-20T01:55:45.059Z,99.99
2019-02-20T02:00:58.004Z,99.99
2019-02-20T02:01:56.428Z,99.99
2019-02-20T02:03:58.550Z,99.99
2019-02-20T02:04:50.033Z,99.99
2019-02-20T02:06:49.867Z,99.99
2019-02-20T02:07:46.335Z,99.99
2019-02-20T02:09:42.259Z,99.99
2019-02-20T02:10:42.257Z,99.99
2019-02-20T02:11:42.785Z,99.99
2019-02-20T02:12:41.714Z,99.99
2019-02-20T02:13:42.219Z,99.99
2019-02-20T02:14:42.160Z,99.99
2019-02-20T02:15:41.203Z,99.99
2019-02-20T02:16:43.347Z,99.99
2019-02-20T02:18:12.767Z,99.99
2019-02-20T02:18:41.199Z,99.99
2019-02-20T02:19:41.142Z,99.99
2019-02-20T02:20:41.617Z,99.99
2019-02-20T02:21:41.606Z,99.99
2019-02-20T02:22:42.670Z,99.99
2019-02-20T02:23:42.780Z,99.99
2019-02-20T02:24:42.140Z,99.99
2019-02-20T02:25:41.638Z,99.99
2019-02-20T02:26:42.634Z,99.99
2019-02-20T02:27:41.066Z,99.99
2019-02-20T02:30:06.248Z,99.99
2019-02-20T02:32:28.125Z,99.99
2019-02-20T02:33:28.068Z,99.99
2019-02-20T02:34:28.565Z,99.99
2019-02-20T02:35:29.132Z,99.99
2019-02-20T02:37:50.341Z,99.99
2019-02-20T02:39:02.644Z,99.99
2019-02-20T02:41:57.277Z,99.99
2019-02-20T02:42:44.736Z,99.99
2019-02-20T02:43:30.796Z,99.99
2019-02-20T02:47:46.846Z,99.99
2019-02-20T02:48:46.660Z,99.99
2019-02-20T02:53:15.097Z,99.99
2019-02-20T02:53:58.625Z,99.99
2019-02-20T02:54:58.515Z,99.99
2019-02-20T02:56:13.166Z,99.99
2019-02-20T02:57:55.990Z,99.99
2019-02-20T02:58:52.959Z,99.99
2019-02-20T03:01:23.488Z,99.99
2019-02-20T03:01:53.755Z,99.99
2019-02-20T03:03:46.532Z,99.99
2019-02-20T03:04:42.998Z,99.99
2019-02-20T03:05:42.982Z,99.99
2019-02-20T03:06:42.493Z,99.99
2019-02-20T03:07:41.613Z,99.99
2019-02-20T03:08:43.193Z,99.99
2019-02-20T03:09:41.581Z,99.99
2019-02-20T03:10:42.447Z,99.99
2019-02-20T03:11:41.498Z,99.99
2019-02-20T03:12:41.539Z,99.99
2019-02-20T03:13:44.071Z,99.99
2019-02-20T03:14:41.395Z,99.99
2019-02-20T03:15:41.178Z,99.99
2019-02-20T03:16:41.088Z,99.99
2019-02-20T03:19:40.094Z,99.99
2019-02-20T03:21:06.050Z,99.99
2019-02-20T06:19:35.113Z,99.99
2019-02-20T06:20:34.824Z,99.99
2019-02-20T06:22:28.200Z,99.99
2019-02-20T06:23:28.133Z,99.99
2019-02-20T06:25:21.293Z,99.99
2019-02-20T06:26:20.971Z,99.99
2019-02-20T06:28:14.607Z,99.99
2019-02-20T06:29:14.301Z,99.99
2019-02-20T06:31:07.238Z,99.99
2019-02-20T06:32:07.173Z,99.99
2019-02-20T06:34:00.270Z,99.99
2019-02-20T06:35:00.004Z,99.99
2019-02-20T06:36:53.566Z,99.99
2019-02-20T06:37:53.327Z,99.99
2019-02-20T06:39:46.763Z,99.99
2019-02-20T06:40:46.667Z,99.99
2019-02-20T06:42:40.273Z,99.99
2019-02-20T06:43:39.991Z,99.99
2019-02-20T06:45:33.561Z,99.99
2019-02-20T06:46:33.372Z,99.99
2019-02-20T06:48:26.568Z,99.99
2019-02-20T06:49:26.473Z,99.99
2019-02-20T06:51:19.462Z,99.99
2019-02-20T06:52:19.405Z,99.99
2019-02-20T06:54:13.255Z,99.99
2019-02-20T06:55:12.689Z,99.99
2019-02-20T06:57:05.775Z,99.99
2019-02-20T06:58:05.736Z,99.99
2019-02-20T06:59:59.218Z,99.99
2019-02-20T07:00:59.113Z,99.99
2019-02-20T07:02:51.952Z,99.99
2019-02-20T07:03:51.652Z,99.99
2019-02-20T07:05:45.319Z,99.99
2019-02-20T07:06:45.273Z,99.99
2019-02-20T07:08:38.466Z,99.99
2019-02-20T07:09:38.349Z,99.99
2019-02-20T07:11:31.486Z,99.99
2019-02-20T07:12:32.000Z,99.99
2019-02-20T07:14:24.248Z,99.99
2019-02-20T07:15:24.016Z,99.99
2019-02-20T07:17:17.508Z,99.99
2019-02-20T07:18:17.411Z,99.99
2019-02-20T07:20:10.270Z,99.99
2019-02-20T07:21:10.251Z,99.99
2019-02-20T07:23:03.148Z,99.99
2019-02-20T07:24:03.090Z,99.99
2019-02-20T07:25:56.701Z,99.99
2019-02-20T07:26:56.754Z,99.99
2019-02-20T07:28:50.297Z,99.99
2019-02-20T07:29:50.275Z,99.99
2019-02-20T07:31:44.641Z,99.99
2019-02-20T07:32:45.070Z,99.99
2019-02-20T07:34:37.034Z,99.99
2019-02-20T07:35:37.987Z,99.99
2019-02-20T07:37:31.364Z,99.99
2019-02-20T07:38:31.339Z,99.99
2019-02-20T07:40:24.241Z,99.99
2019-02-20T07:41:23.657Z,99.99
2019-02-20T07:43:18.132Z,99.99
2019-02-20T07:44:17.052Z,99.99
2019-02-20T07:46:11.420Z,99.99
2019-02-20T07:47:11.346Z,99.99
2019-02-20T07:49:04.001Z,99.99
2019-02-20T07:50:03.972Z,99.99
2019-02-20T07:51:56.357Z,99.99
2019-02-20T07:52:56.214Z,99.99
2019-02-20T07:54:49.734Z,99.99
2019-02-20T07:55:50.650Z,99.99
2019-02-20T07:57:42.873Z,99.99
2019-02-20T07:58:43.059Z,99.99
2019-02-20T08:00:36.468Z,99.99
2019-02-20T08:01:36.411Z,99.99
2019-02-20T08:03:29.812Z,99.99
2019-02-20T08:04:30.183Z,99.99
2019-02-20T08:06:22.556Z,99.99
2019-02-20T08:07:22.577Z,99.99
2019-02-20T08:09:15.449Z,99.77
2019-02-20T08:10:15.420Z,99.77
2019-02-20T08:12:07.942Z,99.49
2019-02-20T08:13:09.453Z,99.07
2019-02-20T08:15:01.630Z,97.74
2019-02-20T08:16:01.222Z,97.64
2019-02-20T08:17:54.848Z,97.64
2019-02-20T08:18:54.530Z,97.64
2019-02-20T08:20:48.060Z,97.74
2019-02-20T08:21:53.091Z,97.55
2019-02-20T08:22:47.942Z,97.92
2019-02-20T08:24:41.431Z,97.17
2019-02-20T08:25:41.531Z,97.92
2019-02-20T08:27:34.612Z,96.79
2019-02-20T08:28:34.144Z,97.45
2019-02-20T08:30:52.605Z,96.88
2019-02-20T08:31:53.918Z,96.88
2019-02-20T08:33:45.950Z,96.98
2019-02-20T08:34:45.790Z,96.88
2019-02-20T08:35:45.951Z,96.98
2019-02-20T08:36:45.822Z,96.79
2019-02-20T08:37:45.943Z,97.07
2019-02-20T08:38:45.800Z,96.41
2019-02-20T08:39:45.758Z,96.22
2019-02-20T08:40:46.395Z,96.31
2019-02-20T08:41:45.849Z,96.31
2019-02-20T08:42:45.751Z,96.60
2019-02-20T08:43:45.827Z,95.89
2019-02-20T08:44:45.837Z,95.89
2019-02-20T08:45:47.287Z,95.32
2019-02-20T08:46:45.733Z,94.84
2019-02-20T08:48:39.233Z,94.56
2019-02-20T08:49:39.143Z,94.46
2019-02-20T08:51:32.590Z,93.32
2019-02-20T08:52:32.579Z,92.75
2019-02-20T08:54:26.062Z,92.80
2019-02-20T08:55:31.770Z,91.66
2019-02-20T08:57:18.984Z,91.85
2019-02-20T08:58:18.907Z,91.08
2019-02-20T09:00:11.722Z,90.61
2019-02-20T09:01:11.665Z,90.47
2019-02-20T09:03:15.585Z,90.28
2019-02-20T09:04:05.090Z,89.89
2019-02-20T09:05:58.460Z,90.33
2019-02-20T09:06:58.133Z,90.23
2019-02-20T09:08:51.362Z,90.14
2019-02-20T09:09:51.007Z,90.33
2019-02-20T09:11:45.622Z,90.14
2019-02-20T09:12:43.906Z,90.18
2019-02-20T09:14:37.078Z,90.33
2019-02-20T09:15:36.807Z,90.37
2019-02-20T09:17:30.010Z,89.51
2019-02-20T09:18:29.827Z,88.56
2019-02-20T09:19:29.664Z,88.66
2019-02-20T09:20:29.956Z,89.32
2019-02-20T09:21:29.661Z,89.04
2019-02-20T09:22:29.614Z,88.66
2019-02-20T09:23:29.613Z,87.90
2019-02-20T09:24:29.635Z,88.66
2019-02-20T09:25:29.611Z,87.94
2019-02-20T09:26:29.637Z,88.28
2019-02-20T09:27:29.615Z,87.52
2019-02-20T09:28:29.610Z,88.09
2019-02-20T09:29:29.606Z,87.71
2019-02-20T09:30:29.980Z,87.90
2019-02-20T09:31:29.605Z,87.90
2019-02-20T09:32:29.607Z,87.71
2019-02-20T09:33:29.622Z,87.18
2019-02-20T09:34:29.603Z,87.42
2019-02-20T09:35:29.673Z,88.28
2019-02-20T09:36:29.600Z,87.56
2019-02-20T09:37:29.975Z,87.37
2019-02-20T09:38:29.603Z,87.13
2019-02-20T09:39:29.601Z,87.71
2019-02-20T09:40:29.608Z,88.09
2019-02-20T09:41:29.598Z,88.37
2019-02-20T09:42:29.602Z,88.66
2019-02-20T09:43:29.597Z,87.71
2019-02-20T09:44:29.597Z,88.66
2019-02-20T09:45:29.600Z,88.61
2019-02-20T09:46:29.595Z,89.09
2019-02-20T09:47:29.593Z,88.90
2019-02-20T09:48:29.591Z,89.23
2019-02-20T09:49:29.600Z,88.61
2019-02-20T09:50:29.588Z,88.75
2019-02-20T09:51:29.586Z,89.04
2019-02-20T09:52:29.588Z,87.90
2019-02-20T09:53:29.599Z,88.46
2019-02-20T09:54:29.584Z,88.56
2019-02-20T09:55:29.584Z,88.56
2019-02-20T09:56:29.581Z,89.04
2019-02-20T09:57:29.590Z,88.09
2019-02-20T09:58:29.581Z,87.90
2019-02-20T09:59:29.580Z,88.66
2019-02-20T10:00:29.584Z,88.66
2019-02-20T10:01:29.577Z,87.71
2019-02-20T10:02:29.574Z,87.75
2019-02-20T10:03:29.685Z,87.27
2019-02-20T10:04:29.577Z,86.13
2019-02-20T10:05:29.579Z,86.42
2019-02-20T10:06:29.583Z,85.75
2019-02-20T10:07:29.576Z,85.75
2019-02-20T10:08:29.579Z,86.13
2019-02-20T10:09:29.581Z,85.85
2019-02-20T10:10:29.577Z,85.37
2019-02-20T10:11:29.586Z,85.85
2019-02-20T10:12:29.579Z,86.13
2019-02-20T10:13:29.598Z,86.22
2019-02-20T10:14:29.580Z,86.13
2019-02-20T10:15:29.595Z,86.51
2019-02-20T10:16:29.584Z,86.22
2019-02-20T10:17:29.585Z,86.22
2019-02-20T10:18:29.602Z,86.42
2019-02-20T10:19:29.586Z,86.04
2019-02-20T10:20:29.583Z,85.85
2019-02-20T10:21:29.582Z,85.28
2019-02-20T10:22:31.196Z,86.13
2019-02-20T10:23:29.586Z,85.94
2019-02-20T10:24:29.591Z,85.56
2019-02-20T10:25:29.592Z,85.37
2019-02-20T10:26:29.589Z,85.18
2019-02-20T10:27:29.592Z,85.37
2019-02-20T10:28:29.596Z,85.85
2019-02-20T10:29:29.592Z,85.94
2019-02-20T10:30:29.594Z,86.51
2019-02-20T10:31:29.593Z,86.13
2019-02-20T10:32:29.592Z,86.51
2019-02-20T10:33:29.670Z,86.13
2019-02-20T10:34:29.605Z,86.22
2019-02-20T10:35:29.600Z,85.94
2019-02-20T10:36:29.596Z,86.36
2019-02-20T10:37:29.607Z,85.32
2019-02-20T10:38:29.598Z,84.36
2019-02-20T10:39:29.603Z,83.80
2019-02-20T10:40:29.614Z,83.70
2019-02-20T10:41:29.600Z,84.08
2019-02-20T10:42:29.602Z,84.75
2019-02-20T10:43:29.603Z,84.46
2019-02-20T10:44:29.606Z,83.61
2019-02-20T10:45:29.603Z,84.08
2019-02-20T10:46:29.605Z,83.89
2019-02-20T10:47:29.605Z,83.22
2019-02-20T10:48:29.604Z,83.09
2019-02-20T10:49:29.603Z,84.04
2019-02-20T10:50:29.605Z,84.23
2019-02-20T10:51:29.606Z,84.61
2019-02-20T10:52:29.636Z,84.61
2019-02-20T10:53:29.599Z,85.94
2019-02-20T10:54:29.621Z,85.37
2019-02-20T10:55:29.602Z,85.22
2019-02-20T10:56:29.610Z,84.52
2019-02-20T10:57:29.602Z,84.56
2019-02-20T10:58:29.602Z,84.61
2019-02-20T10:59:29.606Z,84.23
2019-02-20T11:00:29.600Z,84.52
2019-02-20T11:01:29.599Z,85.28
2019-02-20T11:02:29.598Z,84.89
2019-02-20T11:03:29.612Z,85.47
2019-02-20T11:04:30.846Z,86.42
2019-02-20T11:05:29.595Z,86.38
2019-02-20T11:06:29.598Z,86.22
2019-02-20T11:07:29.627Z,86.61
2019-02-20T11:08:30.456Z,86.57
2019-02-20T11:09:29.590Z,86.57
2019-02-20T11:10:29.597Z,86.22
2019-02-20T11:11:29.590Z,86.61
2019-02-20T11:12:29.590Z,86.04
2019-02-20T11:13:29.586Z,86.22
2019-02-20T11:14:29.585Z,85.94
2019-02-20T11:15:29.604Z,86.51
2019-02-20T11:16:29.585Z,86.04
2019-02-20T11:17:29.581Z,86.51
2019-02-20T11:18:29.579Z,85.47
2019-02-20T11:19:29.579Z,85.08
2019-02-20T11:20:29.588Z,84.80
2019-02-20T11:21:29.575Z,85.47
2019-02-20T11:22:29.574Z,86.13
2019-02-20T11:23:29.572Z,85.94
2019-02-20T11:24:29.597Z,85.33
2019-02-20T11:25:31.254Z,85.90
2019-02-20T11:26:29.569Z,86.38
2019-02-20T11:27:29.567Z,86.61
2019-02-20T11:28:29.564Z,86.04
2019-02-20T11:29:29.560Z,86.22
2019-02-20T11:30:29.560Z,85.85
2019-02-20T11:31:29.558Z,86.22
2019-02-20T11:32:29.618Z,85.94
2019-02-20T11:33:29.554Z,86.32
2019-02-20T11:34:29.552Z,86.22
2019-02-20T11:35:29.552Z,85.75
2019-02-20T11:36:29.549Z,85.75
2019-02-20T11:37:29.548Z,85.75
2019-02-20T11:38:30.892Z,85.66
2019-02-20T11:39:37.287Z,84.61
2019-02-20T11:40:29.626Z,84.61
2019-02-20T11:41:29.543Z,84.23
2019-02-20T11:42:29.594Z,84.04
2019-02-20T11:43:29.541Z,84.61
2019-02-20T11:44:29.535Z,85.18
2019-02-20T11:45:29.531Z,84.99
2019-02-20T11:46:29.541Z,84.42
2019-02-20T11:47:29.528Z,83.56
2019-02-20T11:48:29.533Z,83.37
2019-02-20T11:49:29.524Z,84.42
2019-02-20T11:50:29.524Z,84.23
2019-02-20T11:51:29.534Z,84.61
2019-02-20T11:52:37.933Z,83.09
2019-02-20T11:53:36.994Z,83.94
2019-02-20T11:54:29.513Z,83.81
2019-02-20T11:55:29.530Z,84.13
2019-02-20T11:56:29.513Z,83.94
2019-02-20T11:57:29.541Z,83.75
2019-02-20T11:58:29.510Z,83.85
2019-02-20T11:59:29.507Z,83.75
2019-02-20T12:00:29.505Z,83.28
2019-02-20T12:01:29.501Z,83.09
2019-02-20T12:02:37.219Z,83.09
2019-02-20T12:03:29.496Z,82.70
2019-02-20T12:04:29.500Z,83.28
2019-02-20T12:05:29.495Z,83.09
2019-02-20T12:06:29.492Z,82.56
2019-02-20T12:07:29.502Z,81.03
2019-02-20T12:08:29.493Z,79.99
2019-02-20T12:09:29.489Z,80.36
2019-02-20T12:10:29.488Z,80.13
2019-02-20T12:11:29.483Z,80.61
2019-02-20T12:12:29.483Z,81.18
2019-02-20T12:13:29.477Z,82.51
2019-02-20T12:14:29.478Z,82.80
2019-02-20T12:15:29.513Z,81.56
2019-02-20T12:16:29.475Z,81.18
2019-02-20T12:17:29.472Z,81.56
2019-02-20T12:18:29.493Z,81.09
2019-02-20T12:19:29.498Z,80.52
2019-02-20T12:20:29.468Z,81.37
2019-02-20T12:21:29.465Z,81.95
2019-02-20T12:22:29.468Z,81.47
2019-02-20T12:23:36.512Z,81.37
2019-02-20T12:24:29.461Z,81.56
2019-02-20T12:25:29.457Z,81.28
2019-02-20T12:26:34.910Z,81.28
2019-02-20T12:27:29.453Z,81.28
2019-02-20T12:28:29.451Z,81.37
2019-02-20T12:29:30.143Z,81.76
2019-02-20T12:30:29.445Z,81.76
2019-02-20T12:31:29.449Z,82.23
2019-02-20T12:32:30.912Z,82.61
2019-02-20T12:33:29.442Z,82.70
2019-02-20T12:34:29.442Z,82.04
2019-02-20T12:35:29.439Z,82.42
2019-02-20T12:36:29.435Z,81.95
2019-02-20T12:37:29.475Z,82.70
2019-02-20T12:38:29.453Z,82.51
2019-02-20T12:39:29.477Z,82.90
2019-02-20T12:40:30.321Z,82.51
2019-02-20T12:41:30.318Z,82.23
2019-02-20T12:42:29.428Z,82.14
2019-02-20T12:43:29.423Z,82.51
2019-02-20T12:44:29.423Z,83.09
2019-02-20T12:45:29.418Z,82.80
2019-02-20T12:46:29.419Z,82.80
2019-02-20T12:47:29.415Z,82.80
2019-02-20T12:48:29.413Z,83.09
2019-02-20T12:49:29.410Z,84.04
2019-02-20T12:50:29.406Z,83.47
2019-02-20T12:51:29.406Z,83.18
2019-02-20T12:52:29.403Z,83.37
2019-02-20T12:53:29.400Z,82.99
2019-02-20T12:54:29.400Z,83.09
2019-02-20T12:55:29.397Z,83.09
2019-02-20T12:56:29.394Z,83.47
2019-02-20T12:57:29.394Z,83.41
2019-02-20T12:58:29.412Z,82.56
2019-02-20T12:59:29.388Z,82.93
2019-02-20T13:00:29.389Z,82.08
2019-02-20T13:01:29.383Z,81.51
2019-02-20T13:02:29.381Z,81.41
2019-02-20T13:03:29.388Z,80.36
2019-02-20T13:04:29.379Z,80.55
2019-02-20T13:05:29.377Z,80.94
2019-02-20T13:06:29.894Z,81.13
2019-02-20T13:07:29.372Z,81.41
2019-02-20T13:08:29.370Z,81.56
2019-02-20T13:09:29.369Z,81.76
2019-02-20T13:10:29.363Z,82.14
2019-02-20T13:11:29.363Z,82.42
2019-02-20T13:12:30.522Z,82.14
2019-02-20T13:13:29.362Z,82.61
2019-02-20T13:14:29.356Z,82.99
2019-02-20T13:15:29.353Z,83.18
2019-02-20T13:16:29.354Z,83.28
2019-02-20T13:17:29.353Z,82.90
2019-02-20T13:18:29.347Z,83.18
2019-02-20T13:19:29.348Z,82.99
2019-02-20T13:20:29.345Z,82.99
2019-02-20T13:21:29.345Z,83.75
2019-02-20T13:22:29.342Z,83.56
2019-02-20T13:23:29.338Z,83.62
2019-02-20T13:24:29.333Z,83.75
2019-02-20T13:25:29.332Z,83.47
2019-02-20T13:26:29.332Z,83.85
2019-02-20T13:27:29.333Z,83.56
2019-02-20T13:28:29.325Z,83.81
2019-02-20T13:29:29.321Z,83.56
2019-02-20T13:30:29.319Z,84.00
2019-02-20T13:31:29.322Z,84.23
2019-02-20T13:32:29.315Z,83.65
2019-02-20T13:33:29.313Z,83.56
2019-02-20T13:34:29.309Z,83.28
2019-02-20T13:35:29.310Z,83.85
2019-02-20T13:36:29.306Z,83.65
2019-02-20T13:37:29.306Z,83.09
2019-02-20T13:38:29.299Z,83.18
2019-02-20T13:39:29.298Z,83.75
2019-02-20T13:40:29.293Z,83.85
2019-02-20T13:41:29.294Z,83.28
2019-02-20T13:42:29.290Z,82.61
2019-02-20T13:43:29.287Z,82.95
2019-02-20T13:44:29.293Z,83.14
2019-02-20T13:45:29.282Z,82.95
2019-02-20T13:46:29.281Z,83.56
2019-02-20T13:47:29.303Z,83.65
2019-02-20T13:48:29.281Z,84.13
2019-02-20T13:49:29.271Z,83.85
2019-02-20T13:50:29.270Z,82.99
2019-02-20T13:51:29.285Z,83.28
2019-02-20T13:52:30.496Z,83.37
2019-02-20T13:53:29.262Z,82.80
2019-02-20T13:54:29.259Z,82.70
2019-02-20T13:55:34.556Z,82.61
2019-02-20T13:56:29.252Z,82.90
2019-02-20T13:57:29.254Z,83.37
2019-02-20T13:58:29.247Z,83.28
2019-02-20T13:59:29.249Z,83.28
2019-02-20T14:00:29.251Z,83.09
2019-02-20T14:01:29.241Z,83.18
2019-02-20T14:02:29.259Z,83.18
2019-02-20T14:03:29.237Z,83.09
2019-02-20T14:04:29.239Z,82.99
2019-02-20T14:05:29.232Z,83.28
2019-02-20T14:06:29.232Z,83.18
2019-02-20T14:07:29.244Z,83.47
2019-02-20T14:08:29.254Z,83.85
2019-02-20T14:09:29.222Z,82.90
2019-02-20T14:10:29.219Z,83.65
2019-02-20T14:11:29.216Z,83.65
2019-02-20T14:12:29.217Z,82.99
2019-02-20T14:13:29.211Z,83.47
2019-02-20T14:14:29.211Z,83.75
2019-02-20T14:15:29.206Z,83.47
2019-02-20T14:16:29.224Z,84.23
2019-02-20T14:17:29.458Z,84.04
2019-02-20T14:18:29.202Z,84.23
2019-02-20T14:19:29.204Z,84.47
2019-02-20T14:20:29.203Z,84.66
2019-02-20T14:21:29.207Z,85.33
2019-02-20T14:22:29.194Z,85.52
2019-02-20T14:23:29.778Z,85.80
2019-02-20T14:24:29.186Z,85.99
2019-02-20T14:25:29.243Z,86.09
2019-02-20T14:26:29.181Z,86.28
2019-02-20T14:27:29.180Z,85.90
2019-02-20T14:28:29.176Z,86.38
2019-02-20T14:29:29.171Z,86.38
2019-02-20T14:30:29.169Z,85.99
2019-02-20T14:31:29.186Z,86.76
2019-02-20T14:32:29.180Z,86.57
2019-02-20T14:33:29.160Z,85.90
2019-02-20T14:34:29.157Z,86.28
2019-02-20T14:35:29.153Z,86.66
2019-02-20T14:36:29.158Z,86.47
2019-02-20T14:37:29.150Z,86.38
2019-02-20T14:38:29.150Z,86.85
2019-02-20T14:39:29.151Z,86.38
2019-02-20T14:40:29.143Z,86.32
2019-02-20T14:41:29.146Z,86.28
2019-02-20T14:42:29.143Z,85.99
2019-02-20T14:43:29.141Z,85.90
2019-02-20T14:44:29.132Z,86.57
2019-02-20T14:45:29.128Z,86.57
2019-02-20T14:46:29.127Z,86.61
2019-02-20T14:47:29.121Z,86.61
2019-02-20T14:48:29.122Z,86.61
2019-02-20T14:49:29.127Z,86.04
2019-02-20T14:50:29.122Z,85.85
2019-02-20T14:51:29.112Z,85.85
2019-02-20T14:52:29.109Z,85.85
2019-02-20T14:53:29.105Z,86.13
2019-02-20T14:54:29.105Z,85.75
2019-02-20T14:55:29.099Z,85.66
2019-02-20T14:56:29.096Z,85.66
2019-02-20T14:57:29.094Z,85.75
2019-02-20T14:58:29.097Z,86.04
2019-02-20T14:59:29.089Z,86.18
2019-02-20T15:00:29.094Z,86.18
2019-02-20T15:01:29.080Z,85.99
2019-02-20T15:02:30.027Z,86.57
2019-02-20T15:03:29.079Z,86.28
2019-02-20T15:04:29.079Z,86.57
2019-02-20T15:05:30.479Z,86.94
2019-02-20T15:06:29.087Z,86.85
2019-02-20T15:07:29.065Z,87.42
2019-02-20T15:08:29.069Z,87.23
2019-02-20T15:09:29.060Z,87.52
2019-02-20T15:10:29.061Z,87.32
2019-02-20T15:11:29.055Z,87.32
2019-02-20T15:12:29.053Z,87.52
2019-02-20T15:13:29.052Z,87.42
2019-02-20T15:14:29.045Z,87.13
2019-02-20T15:15:29.041Z,87.32
2019-02-20T15:16:29.043Z,87.52
2019-02-20T15:17:29.057Z,87.99
2019-02-20T15:18:29.040Z,87.90
2019-02-20T15:19:29.064Z,87.90
2019-02-20T15:20:29.070Z,87.80
2019-02-20T15:21:29.038Z,88.09
2019-02-20T15:22:29.043Z,88.56
2019-02-20T15:23:29.030Z,87.90
2019-02-20T15:24:29.021Z,87.71
2019-02-20T15:25:29.012Z,88.46
2019-02-20T15:26:29.032Z,88.18
2019-02-20T15:27:29.100Z,87.90
2019-02-20T15:28:29.018Z,88.66
2019-02-20T15:29:28.999Z,88.37
2019-02-20T15:30:29.020Z,88.18
2019-02-20T15:31:33.764Z,88.37
2019-02-20T15:32:28.998Z,87.80
2019-02-20T15:33:28.993Z,87.85
2019-02-20T15:34:28.982Z,88.13
2019-02-20T15:35:28.991Z,88.52
2019-02-20T15:36:28.981Z,87.66
2019-02-20T15:37:28.973Z,88.23
2019-02-20T15:38:28.970Z,88.33
2019-02-20T15:39:28.967Z,88.80
2019-02-20T15:40:28.964Z,87.76
2019-02-20T15:41:28.967Z,87.71
2019-02-20T15:42:28.959Z,88.90
2019-02-20T15:43:28.953Z,88.52
2019-02-20T15:44:28.952Z,88.80
2019-02-20T15:45:28.947Z,89.28
2019-02-20T15:46:28.945Z,88.71
2019-02-20T15:47:28.964Z,89.09
2019-02-20T15:48:28.946Z,89.28
2019-02-20T15:49:28.938Z,89.09
2019-02-20T15:50:28.933Z,89.85
2019-02-20T15:51:28.931Z,89.94
2019-02-20T15:52:28.929Z,89.75
2019-02-20T15:53:28.918Z,89.85
2019-02-20T15:54:28.926Z,89.56
2019-02-20T15:55:28.919Z,90.04
2019-02-20T15:56:28.911Z,90.23
2019-02-20T15:57:37.562Z,90.23
2019-02-20T15:58:28.909Z,90.42
2019-02-20T15:59:28.900Z,90.33
2019-02-20T16:00:28.897Z,90.42
2019-02-20T16:01:28.896Z,90.52
2019-02-20T16:02:28.893Z,89.75
2019-02-20T16:03:28.893Z,90.23
2019-02-20T16:04:28.900Z,90.23
2019-02-20T16:05:28.880Z,90.04
2019-02-20T16:06:28.876Z,90.23
2019-02-20T16:07:28.878Z,90.33
2019-02-20T16:08:28.875Z,90.33
2019-02-20T16:09:28.868Z,90.23
2019-02-20T16:10:28.858Z,90.52
2019-02-20T16:11:28.882Z,90.14
2019-02-20T16:12:28.868Z,90.33
2019-02-20T16:13:28.857Z,90.33
2019-02-20T16:14:28.850Z,90.70
2019-02-20T16:15:28.852Z,90.61
2019-02-20T16:16:28.840Z,91.18
2019-02-20T16:17:28.838Z,91.08
2019-02-20T16:18:28.842Z,90.99
2019-02-20T16:19:28.833Z,91.08
2019-02-20T16:20:28.835Z,90.89
2019-02-20T16:21:29.615Z,90.89
2019-02-20T16:22:28.829Z,90.80
2019-02-20T16:23:28.818Z,90.70
2019-02-20T16:24:28.858Z,91.47
2019-02-20T16:25:28.809Z,91.66
2019-02-20T16:26:28.803Z,91.56
2019-02-20T16:27:28.802Z,91.28
2019-02-20T16:28:33.866Z,91.56
2019-02-20T16:29:28.801Z,91.47
2019-02-20T16:30:28.791Z,91.71
2019-02-20T16:31:28.796Z,91.75
2019-02-20T16:32:28.786Z,91.71
2019-02-20T16:33:28.781Z,92.27
2019-02-20T16:34:28.778Z,91.42
2019-02-20T16:35:28.773Z,91.61
2019-02-20T16:36:28.775Z,91.89
2019-02-20T16:37:28.781Z,91.71
2019-02-20T16:38:28.784Z,91.71
2019-02-20T16:39:28.762Z,91.89
2019-02-20T16:40:28.757Z,91.61
2019-02-20T16:41:28.755Z,91.89
2019-02-20T16:42:28.749Z,91.89
2019-02-20T16:43:28.758Z,91.42
2019-02-20T16:44:28.742Z,91.89
2019-02-20T16:45:28.737Z,92.27
2019-02-20T16:46:28.732Z,91.52
2019-02-20T16:47:28.742Z,91.23
2019-02-20T16:48:28.730Z,91.33
2019-02-20T16:49:28.723Z,91.33
2019-02-20T16:50:28.719Z,91.42
2019-02-20T16:51:28.714Z,91.71
2019-02-20T16:52:28.721Z,91.42
2019-02-20T16:53:28.709Z,91.52
2019-02-20T16:54:28.711Z,91.23
2019-02-20T16:55:28.702Z,91.71
2019-02-20T16:56:28.716Z,90.66
2019-02-20T16:57:28.693Z,90.75
2019-02-20T16:58:28.691Z,90.28
2019-02-20T16:59:59.371Z,90.19
2019-02-20T17:00:59.382Z,90.28
2019-02-20T17:02:52.831Z,90.19
2019-02-20T17:03:52.468Z,90.00
2019-02-20T17:05:46.257Z,90.28
2019-02-20T17:06:46.134Z,89.71
2019-02-20T17:08:39.052Z,89.80
2019-02-20T17:09:38.745Z,89.61
2019-02-20T17:11:33.283Z,89.90
2019-02-20T17:12:31.676Z,89.61
2019-02-20T17:14:24.732Z,89.61
2019-02-20T17:15:24.472Z,89.33
2019-02-20T17:17:17.638Z,89.42
2019-02-20T17:18:17.355Z,89.52
2019-02-20T17:20:10.984Z,89.42
2019-02-20T17:21:10.746Z,89.23
2019-02-20T17:23:04.979Z,89.23
2019-02-20T17:24:04.928Z,89.23
2019-02-20T17:25:57.776Z,88.95
2019-02-20T17:26:57.458Z,88.57
2019-02-20T17:28:51.189Z,88.95
2019-02-20T17:29:51.284Z,89.42
2019-02-20T17:31:44.668Z,89.33
2019-02-20T17:32:44.514Z,89.14
2019-02-20T17:34:37.363Z,89.42
2019-02-20T17:35:37.102Z,89.23
2019-02-20T17:37:30.319Z,89.23
2019-02-20T17:38:29.938Z,89.23
2019-02-20T17:40:23.135Z,89.23
2019-02-20T17:41:23.406Z,89.04
2019-02-20T17:43:15.940Z,89.09
2019-02-20T17:44:15.636Z,88.76
2019-02-20T17:46:09.401Z,89.04
2019-02-20T17:47:09.064Z,88.95
2019-02-20T17:49:02.787Z,88.85
2019-02-20T17:50:02.692Z,88.76
2019-02-20T17:51:56.279Z,89.38
2019-02-20T17:52:56.069Z,89.33
2019-02-20T20:49:09.728Z,97.74
2019-02-20T20:50:08.360Z,98.21